Kezdőlap
METAR-TAF:

METAR-TAF

Repülőterek :

Oban, Skócia

földrajzi szélesség: 56-27-49N, földrajzi hosszúság: 5-24-00W, magasság: 7 m

Jelenlegi meteorológiai megfigyelések

A jelentés 1 órával és 42 perccel ezelõtt készült, 15:50 UTC
Északi szél 13 kt
Hőmérséklet 18°C
Páratartalom 64%
Légköri nyomás 1014 hPa
Látótávolság 10 km, vagy több
Kevés felhő 4800 lábon

METAR: EGEO 131550Z 36013KT 9999 FEW048 18/11 Q1014

Idő: 18:32 (17:32 UTC)

Előrejelzés

A jelentés 3 órával és 24 perccel ezelõtt készült, 14:08 UTC
Az előrejelzés 13-én 15 óra UTC és 13-én 17 óra UTC között érvényes
Északi szél 9 kt
Látótávolság 10 km, vagy több
Szórványos felhőzet 3500 lábon

TAF: EGEO 131408Z 1315/1317 01009KT 9999 SCT035

Meteorológiai megfigyelések és előrejelzések több, mint 4000 repülőtéren (METAR és TAF jelentéseket).

A térképen piros és sárga pontok jelzik az elérhető meteorológiai állomásokat.

Mozgassa az egeret a pont fölött, hogy megjelenjen az állomás neve.

Azután kattintson az időjárási megfigyelések és előrejelzések megtekintéséhez.

A térkép megváltoztatása: kattintson a fekete keresztel jelölt zöld gombra ráközelítéshez, a vonallal jelölt zöld gombra távolításhoz, vagy a zöld nyilakra a szomszédos térképek eléréséhez.


METAR-TAF: